createdAt,value
2023-02-15T00:01:21.199Z,59835.00
2023-02-15T00:03:50.250Z,59020.47
2023-02-15T00:06:19.568Z,59546.22
2023-02-15T00:08:48.079Z,59946.53
2023-02-15T00:11:38.578Z,60930.66
2023-02-15T00:14:07.957Z,60586.00
2023-02-15T00:16:38.814Z,61636.06
2023-02-15T00:19:08.074Z,61175.75
2023-02-15T00:21:37.934Z,63154.94
2023-02-15T00:24:09.289Z,64989.66
2023-02-15T00:26:39.764Z,62941.59
2023-02-15T00:29:09.122Z,63007.41
2023-02-15T00:31:39.682Z,63852.81
2023-02-15T00:34:10.422Z,64698.41
2023-02-15T00:36:39.041Z,66641.75
2023-02-15T00:39:07.968Z,67474.06
2023-02-15T00:41:37.992Z,69127.38
2023-02-15T00:44:07.096Z,69442.94
2023-02-15T00:46:36.124Z,70931.31
2023-02-15T00:49:06.512Z,71954.59
2023-02-15T00:51:35.500Z,70675.56
2023-02-15T00:54:04.018Z,67961.19
2023-02-15T00:56:32.461Z,68098.97
2023-02-15T00:59:00.967Z,69504.88
2023-02-15T01:01:29.394Z,69422.97
2023-02-15T01:03:57.866Z,69255.19
2023-02-15T01:06:27.610Z,68939.63
2023-02-15T01:08:55.991Z,69762.53
2023-02-15T01:11:25.043Z,71442.94
2023-02-15T01:13:55.295Z,71442.94
2023-02-15T01:16:24.885Z,72978.16
2023-02-15T01:18:53.417Z,72210.47
2023-02-15T01:21:23.616Z,71954.59
2023-02-15T01:23:53.851Z,70164.06
2023-02-15T01:26:22.244Z,69464.91
2023-02-15T01:28:50.561Z,68582.16
2023-02-15T01:31:22.288Z,72210.47
2023-02-15T01:33:50.812Z,74002.03
2023-02-15T01:36:19.340Z,73490.06
2023-02-15T01:38:47.955Z,72978.16
2023-02-15T01:41:25.014Z,73746.06
2023-02-15T01:43:55.508Z,76306.91
2023-02-15T01:46:29.614Z,80151.75
2023-02-15T01:49:04.528Z,78356.94
2023-02-15T01:51:37.078Z,77075.53
2023-02-15T01:54:12.529Z,79126.03
2023-02-15T01:56:43.234Z,79638.84
2023-02-15T01:59:16.446Z,78869.66
2023-02-15T02:01:45.673Z,78869.66
2023-02-15T02:04:19.666Z,80151.75
2023-02-15T02:06:51.118Z,80408.22
2023-02-15T02:09:19.628Z,79382.44
2023-02-15T02:11:50.671Z,79382.44
2023-02-15T02:14:19.973Z,79638.84
2023-02-15T02:16:58.248Z,79895.28
2023-02-15T02:20:17.750Z,80151.75
2023-02-15T02:23:18.108Z,81177.78
2023-02-15T02:26:26.806Z,83230.72
2023-02-15T02:29:21.017Z,83487.44
2023-02-15T02:32:22.659Z,84000.91
2023-02-15T02:34:59.126Z,84000.91
2023-02-15T02:37:35.893Z,85028.06
2023-02-15T02:40:11.014Z,84000.91
2023-02-15T02:42:43.586Z,83230.72
2023-02-15T02:45:20.021Z,81947.50
2023-02-15T02:47:53.235Z,81434.31
2023-02-15T02:50:30.297Z,81177.78
2023-02-15T02:53:00.505Z,80408.22
2023-02-15T02:55:33.855Z,80408.22
2023-02-15T02:58:07.737Z,80921.25
2023-02-15T03:00:41.848Z,81690.91
2023-02-15T03:03:16.045Z,81434.31
2023-02-15T03:05:49.321Z,80151.75
2023-02-15T03:08:23.110Z,78356.94
2023-02-15T03:10:55.003Z,77844.31
2023-02-15T03:13:24.767Z,77588.03
2023-02-15T03:16:12.459Z,77588.03
2023-02-15T03:18:45.536Z,78356.94
2023-02-15T03:21:23.256Z,79895.28
2023-02-15T03:23:56.719Z,80151.75
2023-02-15T03:26:29.207Z,78613.28
2023-02-15T03:29:01.140Z,76563.09
2023-02-15T03:31:34.410Z,78613.28
2023-02-15T03:34:06.807Z,78100.63
2023-02-15T03:36:42.495Z,77844.31
2023-02-15T03:39:19.049Z,75794.56
2023-02-15T03:41:52.079Z,76819.28
2023-02-15T03:44:27.433Z,76563.09
2023-02-15T03:47:02.697Z,75026.22
2023-02-15T03:49:38.674Z,77075.53
2023-02-15T03:52:11.158Z,75794.56
2023-02-15T03:54:47.605Z,75026.22
2023-02-15T03:57:37.393Z,73490.06
2023-02-15T04:00:29.318Z,74258.06
2023-02-15T04:03:23.786Z,75026.22
2023-02-15T04:05:52.319Z,77588.03
2023-02-15T04:08:42.091Z,75026.22
2023-02-15T04:11:09.563Z,74770.16
2023-02-15T04:13:38.075Z,74514.09
2023-02-15T04:16:07.284Z,75794.56
2023-02-15T04:18:57.114Z,72722.25
2023-02-15T04:21:44.457Z,72978.16
2023-02-15T04:24:32.803Z,74770.16
2023-02-15T04:27:02.150Z,75282.31
2023-02-15T04:29:31.288Z,74002.03
2023-02-15T04:32:00.905Z,74514.09
2023-02-15T04:34:29.341Z,77075.53
2023-02-15T04:36:57.890Z,76819.28
2023-02-15T04:39:28.256Z,73490.06
2023-02-15T04:41:56.612Z,71698.75
2023-02-15T04:44:25.291Z,70675.56
2023-02-15T04:46:53.762Z,71187.13
2023-02-15T04:49:22.201Z,71698.75
2023-02-15T04:51:50.737Z,70931.31
2023-02-15T04:54:19.163Z,71698.75
2023-02-15T04:56:49.078Z,72978.16
2023-02-15T04:59:17.584Z,72722.25
2023-02-15T05:01:45.951Z,72210.47
2023-02-15T05:04:14.346Z,72722.25
2023-02-15T05:06:42.702Z,73234.09
2023-02-15T05:09:11.270Z,72978.16
2023-02-15T05:11:39.732Z,72978.16
2023-02-15T05:14:09.425Z,72466.34
2023-02-15T05:16:37.859Z,71698.75
2023-02-15T05:19:06.349Z,69594.75
2023-02-15T05:21:35.460Z,69562.78
2023-02-15T05:24:23.979Z,69492.88
2023-02-15T05:27:09.581Z,69892.38
2023-02-15T05:29:39.375Z,71698.75
2023-02-15T05:32:07.969Z,72722.25
2023-02-15T05:34:36.454Z,71187.13
2023-02-15T05:37:04.833Z,69434.94
2023-02-15T05:39:33.212Z,71442.94
2023-02-15T05:42:02.070Z,72978.16
2023-02-15T05:44:30.668Z,73234.09
2023-02-15T05:47:00.444Z,72722.25
2023-02-15T05:49:28.744Z,73490.06
2023-02-15T05:51:57.460Z,70931.31
2023-02-15T05:54:25.920Z,69646.69
2023-02-15T05:56:54.442Z,70675.56
2023-02-15T05:59:23.504Z,70675.56
2023-02-15T06:01:52.047Z,70931.31
2023-02-15T06:04:21.850Z,70931.31
2023-02-15T06:06:50.127Z,69313.13
2023-02-15T06:09:19.362Z,67851.38
2023-02-15T06:11:47.798Z,69908.38
2023-02-15T06:14:16.278Z,70675.56
2023-02-15T06:16:44.759Z,71442.94
2023-02-15T06:19:13.191Z,70675.56
2023-02-15T06:21:43.016Z,71187.13
2023-02-15T06:24:11.477Z,70076.19
2023-02-15T06:26:39.783Z,71442.94
2023-02-15T06:29:08.286Z,72722.25
2023-02-15T06:31:36.773Z,74002.03
2023-02-15T06:34:06.224Z,72978.16
2023-02-15T06:36:34.559Z,73234.09
2023-02-15T06:39:05.152Z,73234.09
2023-02-15T06:41:33.535Z,72466.34
2023-02-15T06:44:02.072Z,72978.16
2023-02-15T06:46:31.102Z,73746.06
2023-02-15T06:48:59.554Z,75282.31
2023-02-15T06:51:28.154Z,76563.09
2023-02-15T06:53:56.591Z,78100.63
2023-02-15T06:56:26.231Z,79895.28
2023-02-15T06:58:54.690Z,81690.91
2023-02-15T07:01:23.166Z,81947.50
2023-02-15T07:03:52.008Z,82204.09
2023-02-15T07:06:20.614Z,81177.78
2023-02-15T07:08:48.946Z,81434.31
2023-02-15T07:11:49.106Z,80921.25
2023-02-15T07:14:18.881Z,80921.25
2023-02-15T07:16:47.499Z,81434.31
2023-02-15T07:19:15.921Z,82204.09
2023-02-15T07:21:45.125Z,82460.72
2023-02-15T07:24:13.662Z,83230.72
2023-02-15T07:26:42.200Z,83230.72
2023-02-15T07:29:10.680Z,82717.38
2023-02-15T07:31:40.490Z,82460.72
2023-02-15T07:34:09.425Z,83230.72
2023-02-15T07:36:38.057Z,84000.91
2023-02-15T07:39:06.362Z,84257.66
2023-02-15T07:41:34.906Z,84000.91
2023-02-15T07:44:03.388Z,84000.91
2023-02-15T07:46:31.780Z,84257.66
2023-02-15T07:49:01.638Z,84514.44
2023-02-15T07:51:30.039Z,86569.41
2023-02-15T07:54:00.608Z,85798.66
2023-02-15T07:56:29.770Z,85284.91
2023-02-15T07:58:59.612Z,85541.78
2023-02-15T08:01:29.817Z,86312.47
2023-02-15T08:03:58.892Z,86569.41
2023-02-15T08:06:31.460Z,86569.41
2023-02-15T08:09:00.033Z,87340.31
2023-02-15T08:11:33.803Z,88111.41
2023-02-15T08:14:05.030Z,88882.69
2023-02-15T08:16:36.368Z,89396.97
2023-02-15T08:19:09.688Z,88882.69
2023-02-15T08:21:41.476Z,89396.97
2023-02-15T08:24:11.274Z,89911.31
2023-02-15T08:26:42.242Z,89911.31
2023-02-15T08:29:11.785Z,90168.50
2023-02-15T08:31:42.091Z,90682.97
2023-02-15T08:34:12.502Z,90940.22
2023-02-15T08:36:42.404Z,90682.97
2023-02-15T08:39:10.889Z,91454.81
2023-02-15T08:41:40.576Z,91197.50
2023-02-15T08:44:11.312Z,91197.50
2023-02-15T08:46:40.925Z,91969.47
2023-02-15T08:49:09.940Z,91454.81
2023-02-15T08:51:40.705Z,91712.13
2023-02-15T08:54:12.565Z,91454.81
2023-02-15T08:56:42.975Z,91454.81
2023-02-15T08:59:15.242Z,91712.13
2023-02-15T09:01:43.637Z,91454.81
2023-02-15T09:04:14.140Z,91454.81
2023-02-15T09:06:44.646Z,90940.22
2023-02-15T09:09:15.566Z,90682.97
2023-02-15T09:11:45.695Z,90940.22
2023-02-15T09:14:16.644Z,90682.97
2023-02-15T09:16:49.749Z,90682.97
2023-02-15T09:19:19.679Z,91197.50
2023-02-15T09:21:48.963Z,91712.13
2023-02-15T09:24:19.926Z,91712.13
2023-02-15T09:26:50.398Z,91454.81
2023-02-15T09:29:20.265Z,92226.81
2023-02-15T09:31:51.330Z,91454.81
2023-02-15T09:34:21.819Z,91454.81
2023-02-15T09:36:51.086Z,92484.19
2023-02-15T09:39:24.722Z,91969.47
2023-02-15T09:42:19.308Z,91712.13
2023-02-15T09:45:27.225Z,91197.50
2023-02-15T09:48:31.608Z,90168.50
2023-02-15T09:51:12.014Z,89911.31
2023-02-15T09:54:00.548Z,88882.69
2023-02-15T09:56:38.439Z,86826.34
2023-02-15T09:59:16.891Z,86055.56
2023-02-15T10:01:55.227Z,86569.41
2023-02-15T10:04:45.407Z,83744.16
2023-02-15T10:07:29.983Z,84257.66
2023-02-15T10:10:13.657Z,85284.91
2023-02-15T10:12:57.634Z,84514.44
2023-02-15T10:15:35.183Z,82460.72
2023-02-15T10:18:22.796Z,84514.44
2023-02-15T10:21:00.864Z,82974.03
2023-02-15T10:23:48.347Z,78613.28
2023-02-15T10:26:20.980Z,78613.28
2023-02-15T10:28:53.057Z,76563.09
2023-02-15T10:31:39.003Z,74002.03
2023-02-15T10:34:18.437Z,75282.31
2023-02-15T10:37:13.519Z,74770.16
2023-02-15T10:39:55.280Z,68725.94
2023-02-15T10:42:32.911Z,68396.47
2023-02-15T10:45:16.080Z,65326.78
2023-02-15T10:48:09.308Z,66969.06
2023-02-15T10:50:48.917Z,63914.63
2023-02-15T10:53:37.406Z,62644.56
2023-02-15T10:56:14.346Z,63683.31
2023-02-15T10:58:59.999Z,63182.84
2023-02-15T11:01:34.848Z,65959.25
2023-02-15T11:04:44.878Z,60394.75
2023-02-15T11:07:20.898Z,60070.03
2023-02-15T11:09:52.677Z,58387.28
2023-02-15T11:12:24.783Z,57407.91
2023-02-15T11:15:00.725Z,57075.53
2023-02-15T11:17:37.165Z,56259.66
2023-02-15T11:20:17.723Z,56367.09
2023-02-15T11:22:50.653Z,56205.94
2023-02-15T11:25:22.008Z,55923.41
2023-02-15T11:27:51.648Z,56132.31
2023-02-15T11:30:25.323Z,55621.03
2023-02-15T11:32:59.867Z,55581.25
2023-02-15T11:35:33.416Z,55372.38
2023-02-15T11:38:09.361Z,55197.34
2023-02-15T11:40:41.960Z,55010.38
2023-02-15T11:43:19.543Z,55157.56
2023-02-15T11:45:48.791Z,55083.97
2023-02-15T11:48:18.926Z,55151.59
2023-02-15T11:50:47.818Z,55193.34
2023-02-15T11:53:18.088Z,55125.72
2023-02-15T11:55:48.449Z,55085.94
2023-02-15T11:58:29.238Z,54823.41
2023-02-15T12:01:03.680Z,54704.09
2023-02-15T12:03:46.573Z,54560.91
2023-02-15T12:06:23.950Z,54572.81
2023-02-15T12:09:01.484Z,54447.53
2023-02-15T12:11:37.237Z,54407.78
2023-02-15T12:14:07.740Z,54389.88
2023-02-15T12:16:44.405Z,54326.25
2023-02-15T12:19:29.788Z,54222.84
2023-02-15T12:22:00.288Z,54179.09
2023-02-15T12:24:31.889Z,54155.22
2023-02-15T12:27:04.840Z,54163.19
2023-02-15T12:29:41.817Z,54091.59
2023-02-15T12:32:19.282Z,54031.94
2023-02-15T12:34:49.559Z,54035.91
2023-02-15T12:37:20.417Z,54053.81
2023-02-15T12:39:57.091Z,54024.00
2023-02-15T12:42:26.979Z,54051.81
2023-02-15T12:44:58.356Z,53996.16
2023-02-15T12:47:30.816Z,53984.22
2023-02-15T12:50:18.689Z,53964.34
2023-02-15T12:52:49.715Z,53932.53
2023-02-15T12:55:25.321Z,53988.19
2023-02-15T12:58:08.476Z,53898.72
2023-02-15T13:00:38.026Z,53936.50
2023-02-15T13:03:06.884Z,53900.72
2023-02-15T13:05:40.044Z,53902.69
2023-02-15T13:08:14.732Z,53898.72
2023-02-15T13:10:54.275Z,53876.84
2023-02-15T13:13:26.569Z,53833.13
2023-02-15T13:15:59.110Z,53785.41
2023-02-15T13:18:33.577Z,53745.63
2023-02-15T13:21:13.707Z,53719.78
2023-02-15T13:23:46.739Z,53703.88
2023-02-15T13:26:20.693Z,53713.81
2023-02-15T13:28:51.945Z,53678.03
2023-02-15T13:31:22.873Z,53674.06
2023-02-15T13:33:55.342Z,53604.47
2023-02-15T13:36:30.336Z,53616.41
2023-02-15T13:39:11.801Z,53610.44
2023-02-15T13:41:53.477Z,53572.66
2023-02-15T13:44:36.374Z,53566.69
2023-02-15T13:47:17.969Z,53578.63
2023-02-15T13:49:58.777Z,53594.53
2023-02-15T13:52:30.959Z,53590.56
2023-02-15T13:55:31.526Z,53542.84
2023-02-15T13:58:16.802Z,53574.66
2023-02-15T14:00:56.281Z,53594.53
2023-02-15T14:03:59.319Z,53574.66
2023-02-15T14:06:42.945Z,53608.44
2023-02-15T14:09:25.825Z,53606.47
2023-02-15T14:12:17.418Z,53628.31
2023-02-15T14:15:04.683Z,53598.50
2023-02-15T14:17:45.812Z,53592.53
2023-02-15T14:20:22.320Z,53592.53
2023-02-15T14:22:59.872Z,53622.38
2023-02-15T14:25:36.094Z,53636.28
2023-02-15T14:28:12.516Z,53632.31
2023-02-15T14:30:44.651Z,53620.38
2023-02-15T14:33:33.130Z,53646.22
2023-02-15T14:36:04.895Z,53614.41
2023-02-15T14:38:49.287Z,53634.28
2023-02-15T14:41:23.023Z,53646.22
2023-02-15T14:44:03.811Z,53636.28
2023-02-15T14:46:38.982Z,53626.34
2023-02-15T14:49:12.999Z,53642.25
2023-02-15T14:51:59.997Z,53630.31
2023-02-15T14:55:11.463Z,53612.44
2023-02-15T14:57:41.306Z,53618.38
2023-02-15T15:00:33.393Z,53654.19
2023-02-15T15:03:02.451Z,53634.28
2023-02-15T15:05:36.237Z,53662.13
2023-02-15T15:08:06.942Z,53634.28
2023-02-15T15:10:43.117Z,53664.13
2023-02-15T15:13:54.415Z,53660.13
2023-02-15T15:16:52.705Z,53680.03
2023-02-15T15:20:09.345Z,53662.13
2023-02-15T15:22:38.632Z,53674.06
2023-02-15T15:25:12.586Z,53719.78
2023-02-15T15:27:59.082Z,53715.81
2023-02-15T15:30:55.992Z,53709.84
2023-02-15T15:33:57.729Z,53701.88
2023-02-15T15:36:52.236Z,53731.72
2023-02-15T15:39:44.274Z,53733.69
2023-02-15T15:42:21.179Z,53741.66
2023-02-15T15:45:25.780Z,53733.69
2023-02-15T15:48:14.766Z,53749.59
2023-02-15T15:50:44.659Z,53761.53
2023-02-15T15:53:20.487Z,53749.59
2023-02-15T15:55:51.422Z,53779.44
2023-02-15T15:58:22.134Z,53785.41
2023-02-15T16:00:53.164Z,53765.50
2023-02-15T16:03:26.686Z,53773.47
2023-02-15T16:05:56.687Z,53805.28
2023-02-15T16:08:30.799Z,53821.19
2023-02-15T16:11:01.161Z,53813.22
2023-02-15T16:13:29.914Z,53853.00
2023-02-15T16:15:58.607Z,53864.94
2023-02-15T16:18:30.286Z,53860.94
2023-02-15T16:21:03.182Z,53884.81
2023-02-15T16:23:59.692Z,53888.78
2023-02-15T16:26:46.867Z,53924.56
2023-02-15T16:29:18.714Z,53928.56
2023-02-15T16:32:00.837Z,53938.50
2023-02-15T16:34:33.602Z,53932.53
2023-02-15T16:37:15.784Z,53926.56
2023-02-15T16:39:46.088Z,53974.28
2023-02-15T16:42:17.117Z,53998.16
2023-02-15T16:44:47.341Z,53996.16
2023-02-15T16:47:19.986Z,54025.97
2023-02-15T16:49:52.556Z,54016.03
2023-02-15T16:52:23.735Z,54012.06
2023-02-15T16:54:57.538Z,54059.78
2023-02-15T16:57:29.707Z,54075.69
2023-02-15T17:00:02.749Z,54103.53
2023-02-15T17:02:54.604Z,54133.34
2023-02-15T17:05:24.042Z,54153.25
2023-02-15T17:08:06.828Z,54123.41
2023-02-15T17:10:37.775Z,54159.19
2023-02-15T17:13:11.763Z,54216.88
2023-02-15T17:15:42.302Z,54167.16
2023-02-15T17:18:17.750Z,54240.72
2023-02-15T17:20:48.764Z,54234.75
2023-02-15T17:23:28.127Z,54236.75
2023-02-15T17:25:57.123Z,54304.38
2023-02-15T17:28:29.005Z,54318.28
2023-02-15T17:30:59.819Z,54330.22
2023-02-15T17:33:38.318Z,54330.22
2023-02-15T17:36:14.810Z,54373.97
2023-02-15T17:39:03.333Z,54397.81
2023-02-15T17:41:33.826Z,54425.66
2023-02-15T17:44:03.565Z,54465.44
2023-02-15T17:46:36.989Z,54493.28
2023-02-15T17:49:06.106Z,54515.16
2023-02-15T17:51:36.622Z,54519.13
2023-02-15T17:54:23.006Z,54544.97
2023-02-15T17:56:53.663Z,54592.72
2023-02-15T17:59:22.110Z,54656.34
2023-02-15T18:02:08.718Z,54710.06
2023-02-15T18:04:56.335Z,54759.78
2023-02-15T18:07:43.796Z,54793.56
2023-02-15T18:10:33.011Z,54815.47
2023-02-15T18:13:01.503Z,54867.16
2023-02-15T18:15:30.552Z,54899.00
2023-02-15T18:17:59.191Z,54938.75
2023-02-15T18:20:34.362Z,54924.84
2023-02-15T18:23:04.334Z,54936.78
2023-02-15T18:25:32.781Z,54974.56
2023-02-15T18:28:01.437Z,54996.44
2023-02-15T18:30:30.265Z,55038.22
2023-02-15T18:33:00.828Z,55066.06
2023-02-15T18:35:33.019Z,55026.28
2023-02-15T18:38:03.940Z,55109.81
2023-02-15T18:40:32.506Z,55139.66
2023-02-15T18:43:01.081Z,55169.50
2023-02-15T18:45:33.067Z,55296.78
2023-02-15T18:48:01.992Z,55286.84
2023-02-15T18:50:34.572Z,55272.91
2023-02-15T18:53:06.877Z,55260.97
2023-02-15T18:55:36.834Z,55213.25
2023-02-15T18:58:05.369Z,55223.19
2023-02-15T19:00:35.530Z,55181.41
2023-02-15T19:03:07.259Z,55320.66
2023-02-15T19:05:35.904Z,55352.47
2023-02-15T19:08:06.389Z,55511.63
2023-02-15T19:10:35.464Z,55539.47
2023-02-15T19:13:04.043Z,55573.28
2023-02-15T19:15:32.872Z,55658.81
2023-02-15T19:18:01.524Z,55654.84
2023-02-15T19:20:33.946Z,55678.72
2023-02-15T19:23:03.294Z,55855.78
2023-02-15T19:25:38.146Z,55913.47
2023-02-15T19:28:16.450Z,57095.44
2023-02-15T19:30:45.213Z,56701.41
2023-02-15T19:33:18.411Z,56225.84
2023-02-15T19:35:49.089Z,56024.88
2023-02-15T19:38:20.596Z,56084.56
2023-02-15T19:40:50.547Z,56241.75
2023-02-15T19:43:26.099Z,56221.84
2023-02-15T19:45:55.250Z,56243.75
2023-02-15T19:48:23.944Z,56532.25
2023-02-15T19:50:53.352Z,56920.28
2023-02-15T19:53:24.178Z,58914.94
2023-02-15T19:55:54.098Z,58164.31
2023-02-15T19:58:23.045Z,57809.97
2023-02-15T20:00:53.266Z,57218.81
2023-02-15T20:03:22.173Z,57210.84
2023-02-15T20:05:50.837Z,57049.66
2023-02-15T20:08:22.272Z,57268.56
2023-02-15T20:10:50.917Z,57419.84
2023-02-15T20:13:21.753Z,57511.41
2023-02-15T20:15:54.095Z,57419.84
2023-02-15T20:18:23.404Z,57806.00
2023-02-15T20:20:55.497Z,57895.56
2023-02-15T20:23:28.953Z,58196.16
2023-02-15T20:26:00.367Z,58237.97
2023-02-15T20:28:31.911Z,58656.06
2023-02-15T20:31:01.026Z,58341.50
2023-02-15T20:33:29.555Z,58144.41
2023-02-15T20:35:58.383Z,58365.38
2023-02-15T20:38:28.710Z,58681.97
2023-02-15T20:41:17.333Z,58803.41
2023-02-15T20:43:47.409Z,60444.53
2023-02-15T20:46:16.081Z,60384.78
2023-02-15T20:48:44.644Z,59886.78
2023-02-15T20:51:18.490Z,60082.00
2023-02-15T20:53:47.561Z,59755.34
2023-02-15T20:56:20.448Z,59568.13
2023-02-15T20:58:50.902Z,60516.25
2023-02-15T21:01:22.168Z,59791.19
2023-02-15T21:03:51.622Z,59420.75
2023-02-15T21:06:20.238Z,58889.03
2023-02-15T21:08:48.690Z,60109.88
2023-02-15T21:11:21.196Z,60151.72
2023-02-15T21:13:52.095Z,59940.56
2023-02-15T21:16:20.930Z,59540.22
2023-02-15T21:18:49.455Z,59440.66
2023-02-15T21:21:23.726Z,59496.41
2023-02-15T21:23:53.856Z,59936.59
2023-02-15T21:26:23.930Z,60376.81
2023-02-15T21:28:55.195Z,59757.31
2023-02-15T21:31:25.775Z,59655.75
2023-02-15T21:33:55.209Z,60267.25
2023-02-15T21:36:25.653Z,62353.53
2023-02-15T21:38:54.945Z,66669.69
2023-02-15T21:41:43.001Z,66547.94
2023-02-15T21:44:38.706Z,67212.56
2023-02-15T21:47:24.945Z,65083.41
2023-02-15T21:49:53.734Z,64147.94
2023-02-15T21:52:23.702Z,61516.47
2023-02-15T21:54:52.413Z,60741.38
2023-02-15T21:57:23.088Z,59850.94
2023-02-15T21:59:52.996Z,59904.72
2023-02-15T22:02:29.080Z,60169.63
2023-02-15T22:04:58.079Z,60213.47
2023-02-15T22:07:27.072Z,60080.00
2023-02-15T22:09:55.631Z,60006.31
2023-02-15T22:12:24.301Z,59958.50
2023-02-15T22:14:55.668Z,59888.78
2023-02-15T22:17:26.230Z,59894.75
2023-02-15T22:19:54.892Z,59783.22
2023-02-15T22:22:23.370Z,59773.25
2023-02-15T22:24:51.700Z,59621.91
2023-02-15T22:27:22.574Z,59331.13
2023-02-15T22:29:51.891Z,59110.06
2023-02-15T22:32:24.277Z,58769.56
2023-02-15T22:34:54.177Z,58441.03
2023-02-15T22:37:22.913Z,57995.09
2023-02-15T22:39:51.411Z,57811.97
2023-02-15T22:42:25.852Z,57786.09
2023-02-15T22:44:55.793Z,57577.09
2023-02-15T22:47:28.227Z,57306.38
2023-02-15T22:49:57.045Z,57423.81
2023-02-15T22:52:25.780Z,57477.56
2023-02-15T22:54:54.372Z,57378.03
2023-02-15T22:57:29.390Z,57208.88
2023-02-15T22:59:58.513Z,57103.38
2023-02-15T23:02:28.518Z,57318.34
2023-02-15T23:04:57.046Z,57451.69
2023-02-15T23:07:25.719Z,56936.22
2023-02-15T23:09:54.422Z,57242.69
2023-02-15T23:12:49.808Z,57668.66
2023-02-15T23:15:18.682Z,57282.50
2023-02-15T23:17:48.688Z,57228.78
2023-02-15T23:20:18.007Z,57175.03
2023-02-15T23:22:46.683Z,57200.91
2023-02-15T23:25:17.613Z,57171.06
2023-02-15T23:27:58.884Z,56940.19
2023-02-15T23:30:27.846Z,56782.97
2023-02-15T23:32:59.261Z,56792.94
2023-02-15T23:35:27.910Z,56737.22
2023-02-15T23:37:56.266Z,56691.44
2023-02-15T23:40:42.435Z,56617.81
2023-02-15T23:43:18.981Z,56470.56
2023-02-15T23:45:47.358Z,56404.91
2023-02-15T23:48:31.111Z,56267.63
2023-02-15T23:51:00.549Z,56263.63
2023-02-15T23:53:29.412Z,56303.44
2023-02-15T23:55:59.003Z,56156.19
2023-02-15T23:58:35.057Z,56092.53
